createdAt,value
2017-07-31T00:00:26.084Z,19.59
2017-07-31T00:02:55.684Z,19.63
2017-07-31T00:05:25.635Z,19.58
2017-07-31T00:07:55.261Z,19.61
2017-07-31T00:10:26.122Z,19.65
2017-07-31T00:12:55.714Z,19.58
2017-07-31T00:15:26.203Z,19.51
2017-07-31T00:17:55.807Z,19.63
2017-07-31T00:20:32.029Z,19.68
2017-07-31T00:23:01.475Z,19.69
2017-07-31T00:25:30.910Z,19.76
2017-07-31T00:28:00.105Z,19.70
2017-07-31T00:30:30.089Z,19.64
2017-07-31T00:32:59.294Z,19.75
2017-07-31T00:35:28.530Z,19.60
2017-07-31T00:37:58.054Z,19.71
2017-07-31T00:40:29.713Z,20.04
2017-07-31T00:42:58.898Z,20.32
2017-07-31T00:45:28.921Z,20.41
2017-07-31T00:47:58.276Z,20.57
2017-07-31T00:50:29.114Z,20.57
2017-07-31T00:52:58.906Z,20.60
2017-07-31T00:55:28.436Z,20.85
2017-07-31T00:57:57.870Z,20.95
2017-07-31T01:00:27.383Z,20.96
2017-07-31T01:02:56.540Z,20.96
2017-07-31T01:05:25.966Z,21.01
2017-07-31T01:07:56.038Z,21.13
2017-07-31T01:10:26.787Z,21.17
2017-07-31T01:12:56.269Z,21.15
2017-07-31T01:15:26.062Z,21.17
2017-07-31T01:17:55.358Z,21.21
2017-07-31T01:20:25.565Z,21.20
2017-07-31T01:22:55.366Z,21.21
2017-07-31T01:25:25.811Z,21.18
2017-07-31T01:27:55.215Z,21.21
2017-07-31T01:30:25.875Z,21.19
2017-07-31T01:32:55.050Z,21.13
2017-07-31T01:35:25.681Z,21.13
2017-07-31T01:37:55.480Z,21.13
2017-07-31T01:40:25.618Z,21.08
2017-07-31T01:42:54.984Z,21.09
2017-07-31T01:45:26.363Z,21.06
2017-07-31T01:47:55.870Z,21.04
2017-07-31T01:50:26.074Z,21.04
2017-07-31T01:52:56.015Z,21.02
2017-07-31T01:55:25.806Z,20.99
2017-07-31T01:57:55.195Z,21.03
2017-07-31T02:00:25.639Z,21.02
2017-07-31T02:02:55.057Z,21.02
2017-07-31T02:05:25.546Z,21.00
2017-07-31T02:07:55.508Z,21.03
2017-07-31T02:10:25.649Z,21.00
2017-07-31T02:12:55.113Z,21.02
2017-07-31T02:15:25.455Z,21.02
2017-07-31T02:17:56.458Z,21.02
2017-07-31T02:20:26.295Z,21.01
2017-07-31T02:22:55.508Z,21.03
2017-07-31T02:25:26.960Z,21.01
2017-07-31T02:27:56.120Z,20.93
2017-07-31T02:30:26.777Z,20.91
2017-07-31T02:32:56.295Z,20.88
2017-07-31T02:35:26.912Z,20.90
2017-07-31T02:37:56.511Z,20.86
2017-07-31T02:40:26.432Z,20.88
2017-07-31T02:42:55.595Z,20.91
2017-07-31T02:45:26.244Z,20.89
2017-07-31T02:47:55.991Z,20.91
2017-07-31T02:50:26.794Z,20.81
2017-07-31T02:52:55.982Z,20.69
2017-07-31T02:55:25.879Z,20.72
2017-07-31T02:57:55.097Z,20.71
2017-07-31T03:00:27.712Z,20.69
2017-07-31T03:02:56.926Z,20.64
2017-07-31T03:05:26.766Z,20.62
2017-07-31T03:07:56.343Z,20.62
2017-07-31T03:10:27.018Z,20.61
2017-07-31T03:12:56.277Z,20.59
2017-07-31T03:15:26.833Z,20.57
2017-07-31T03:17:56.119Z,20.61
2017-07-31T03:20:26.488Z,20.58
2017-07-31T03:22:55.806Z,20.60
2017-07-31T03:25:28.686Z,20.50
2017-07-31T03:27:58.257Z,20.47
2017-07-31T03:30:27.661Z,20.46
2017-07-31T03:32:57.547Z,20.41
2017-07-31T03:35:27.019Z,20.35
2017-07-31T03:37:56.302Z,20.37
2017-07-31T03:40:26.695Z,20.39
2017-07-31T03:42:56.221Z,20.35
2017-07-31T03:45:26.610Z,20.35
2017-07-31T03:47:57.487Z,20.27
2017-07-31T03:50:27.794Z,20.27
2017-07-31T03:52:57.406Z,20.24
2017-07-31T03:55:26.878Z,20.19
2017-07-31T03:57:56.442Z,20.20
2017-07-31T04:00:26.311Z,20.14
2017-07-31T04:02:55.556Z,20.11
2017-07-31T04:05:26.300Z,20.13
2017-07-31T04:07:55.812Z,20.08
2017-07-31T04:10:26.721Z,20.08
2017-07-31T04:12:56.287Z,20.05
2017-07-31T04:15:26.264Z,20.02
2017-07-31T04:17:55.979Z,19.97
2017-07-31T04:20:26.731Z,20.01
2017-07-31T04:22:57.545Z,19.96
2017-07-31T04:25:27.561Z,19.95
2017-07-31T04:27:58.416Z,19.92
2017-07-31T04:30:27.990Z,19.89
2017-07-31T04:32:57.265Z,19.93
2017-07-31T04:35:26.796Z,19.93
2017-07-31T04:37:56.447Z,19.93
2017-07-31T04:41:29.957Z,19.92
2017-07-31T04:43:59.906Z,19.92
2017-07-31T04:46:29.119Z,19.95
2017-07-31T04:48:58.414Z,19.95
2017-07-31T04:51:29.030Z,19.99
2017-07-31T04:53:58.550Z,19.96
2017-07-31T04:56:29.099Z,19.96
2017-07-31T04:58:58.749Z,20.03
2017-07-31T05:01:27.979Z,20.10
2017-07-31T05:03:57.827Z,20.19
2017-07-31T05:06:27.466Z,20.29
2017-07-31T05:08:56.902Z,20.32
2017-07-31T05:11:26.862Z,20.33
2017-07-31T05:13:56.666Z,20.34
2017-07-31T05:16:27.595Z,20.30
2017-07-31T05:18:56.859Z,20.27
2017-07-31T05:21:26.714Z,20.26
2017-07-31T05:23:55.980Z,20.33
2017-07-31T05:26:26.910Z,20.35
2017-07-31T05:28:56.443Z,20.42
2017-07-31T05:31:26.795Z,20.47
2017-07-31T05:33:56.438Z,20.46
2017-07-31T05:36:26.990Z,20.58
2017-07-31T05:38:56.327Z,20.64
2017-07-31T05:41:26.231Z,20.67
2017-07-31T05:44:00.357Z,20.77
2017-07-31T05:46:29.870Z,20.87
2017-07-31T05:48:59.492Z,20.96
2017-07-31T05:51:29.479Z,21.02
2017-07-31T05:53:58.851Z,21.08
2017-07-31T05:56:28.032Z,21.08
2017-07-31T05:58:57.861Z,21.15
2017-07-31T06:01:27.056Z,21.35
2017-07-31T06:03:56.314Z,21.30
2017-07-31T06:06:26.615Z,21.31
2017-07-31T06:08:57.223Z,21.55
2017-07-31T06:11:26.430Z,21.47
2017-07-31T06:13:56.015Z,21.72
2017-07-31T06:16:27.056Z,21.70
2017-07-31T06:18:56.313Z,21.72
2017-07-31T06:21:25.819Z,21.72
2017-07-31T06:23:54.958Z,21.74
2017-07-31T06:26:28.291Z,21.96
2017-07-31T06:28:57.474Z,22.16
2017-07-31T06:31:26.802Z,22.17
2017-07-31T06:33:56.440Z,22.11
2017-07-31T06:36:26.155Z,22.43
2017-07-31T06:38:55.410Z,22.53
2017-07-31T06:41:26.343Z,22.66
2017-07-31T06:43:55.563Z,22.54
2017-07-31T06:46:25.588Z,22.69
2017-07-31T06:48:55.154Z,22.96
2017-07-31T06:51:25.498Z,23.11
2017-07-31T06:53:54.777Z,23.21
2017-07-31T06:56:26.146Z,23.20
2017-07-31T06:58:55.331Z,23.20
2017-07-31T07:01:26.171Z,23.38
2017-07-31T07:03:55.615Z,23.60
2017-07-31T07:06:25.671Z,23.55
2017-07-31T07:08:55.075Z,23.74
2017-07-31T07:11:24.964Z,23.78
2017-07-31T07:13:54.110Z,24.23
2017-07-31T07:16:24.671Z,24.26
2017-07-31T07:18:54.142Z,24.46
2017-07-31T07:21:24.288Z,24.56
2017-07-31T07:23:53.437Z,24.53
2017-07-31T07:26:23.831Z,24.74
2017-07-31T07:28:53.015Z,24.99
2017-07-31T07:31:23.953Z,25.04
2017-07-31T07:33:53.423Z,25.16
2017-07-31T07:36:23.811Z,25.55
2017-07-31T07:38:53.035Z,25.64
2017-07-31T07:41:24.091Z,25.39
2017-07-31T07:43:53.420Z,25.67
2017-07-31T07:46:23.804Z,25.74
2017-07-31T07:48:53.380Z,25.63
2017-07-31T07:51:23.725Z,25.66
2017-07-31T07:53:52.958Z,25.91
2017-07-31T07:56:24.022Z,26.09
2017-07-31T07:58:53.243Z,26.05
2017-07-31T08:01:23.700Z,26.58
2017-07-31T08:03:53.181Z,26.52
2017-07-31T08:06:23.936Z,26.93
2017-07-31T08:08:53.131Z,26.94
2017-07-31T08:11:23.920Z,27.05
2017-07-31T08:13:53.122Z,26.91
2017-07-31T08:16:23.802Z,27.04
2017-07-31T08:18:53.333Z,26.90
2017-07-31T08:21:23.778Z,27.15
2017-07-31T08:23:56.500Z,27.34
2017-07-31T08:26:26.911Z,27.75
2017-07-31T08:28:56.034Z,27.34
2017-07-31T08:31:25.867Z,26.55
2017-07-31T08:33:55.315Z,26.49
2017-07-31T08:36:26.198Z,25.91
2017-07-31T08:38:55.370Z,25.88
2017-07-31T08:41:24.818Z,25.73
2017-07-31T08:43:54.366Z,25.80
2017-07-31T08:46:24.873Z,25.91
2017-07-31T08:48:54.359Z,25.88
2017-07-31T08:51:24.931Z,26.58
2017-07-31T08:53:54.118Z,26.43
2017-07-31T08:56:24.847Z,25.84
2017-07-31T08:58:54.119Z,25.47
2017-07-31T09:01:24.783Z,24.56
2017-07-31T09:03:54.351Z,23.57
2017-07-31T09:06:24.748Z,22.98
2017-07-31T09:08:53.942Z,22.90
2017-07-31T09:11:25.199Z,22.97
2017-07-31T09:13:54.382Z,23.25
2017-07-31T09:16:25.543Z,24.01
2017-07-31T09:18:54.978Z,24.48
2017-07-31T09:21:25.883Z,23.98
2017-07-31T09:23:55.084Z,24.61
2017-07-31T09:26:27.245Z,24.45
2017-07-31T09:28:56.438Z,25.18
2017-07-31T09:31:25.631Z,25.48
2017-07-31T09:33:54.816Z,25.97
2017-07-31T09:36:25.735Z,25.53
2017-07-31T09:38:54.869Z,26.12
2017-07-31T09:41:25.663Z,26.59
2017-07-31T09:43:54.813Z,26.59
2017-07-31T09:46:26.132Z,27.30
2017-07-31T09:48:55.307Z,27.91
2017-07-31T09:51:26.310Z,28.10
2017-07-31T09:53:55.495Z,27.97
2017-07-31T09:56:25.820Z,27.79
2017-07-31T09:58:55.627Z,28.43
2017-07-31T10:01:26.211Z,28.56
2017-07-31T10:03:55.557Z,28.20
2017-07-31T10:06:25.594Z,28.52
2017-07-31T10:08:54.746Z,28.43
2017-07-31T10:11:27.050Z,28.65
2017-07-31T10:13:56.519Z,29.27
2017-07-31T10:16:25.795Z,29.39
2017-07-31T10:18:55.536Z,29.50
2017-07-31T10:21:26.515Z,29.21
2017-07-31T10:23:55.703Z,30.13
2017-07-31T10:26:25.875Z,29.86
2017-07-31T10:28:55.378Z,29.08
2017-07-31T10:31:26.070Z,29.22
2017-07-31T10:33:55.250Z,29.94
2017-07-31T10:36:26.618Z,29.67
2017-07-31T10:38:55.942Z,30.13
2017-07-31T10:41:26.582Z,30.15
2017-07-31T10:43:56.240Z,29.58
2017-07-31T10:46:25.418Z,29.03
2017-07-31T10:48:54.571Z,28.94
2017-07-31T10:51:25.837Z,29.58
2017-07-31T10:53:55.118Z,30.25
2017-07-31T10:56:26.130Z,29.73
2017-07-31T10:58:55.567Z,29.77
2017-07-31T11:01:25.993Z,29.40
2017-07-31T11:03:55.187Z,29.92
2017-07-31T11:06:26.116Z,30.16
2017-07-31T11:08:55.376Z,30.18
2017-07-31T11:11:26.139Z,29.64
2017-07-31T11:13:55.587Z,29.61
2017-07-31T11:16:26.103Z,29.82
2017-07-31T11:18:55.408Z,30.36
2017-07-31T11:21:26.471Z,30.20
2017-07-31T11:23:56.943Z,30.48
2017-07-31T11:26:26.775Z,30.27
2017-07-31T11:28:56.283Z,31.11
2017-07-31T11:31:25.830Z,31.32
2017-07-31T11:33:55.394Z,31.44
2017-07-31T11:36:25.894Z,30.71
2017-07-31T11:38:56.579Z,30.51
2017-07-31T11:41:26.218Z,29.64
2017-07-31T11:43:55.501Z,29.15
2017-07-31T11:46:26.035Z,29.39
2017-07-31T11:48:55.593Z,29.39
2017-07-31T11:51:25.699Z,28.72
2017-07-31T11:53:55.275Z,28.64
2017-07-31T11:56:26.131Z,29.48
2017-07-31T11:58:55.403Z,29.69
2017-07-31T12:01:26.138Z,30.33
2017-07-31T12:03:55.946Z,30.30
2017-07-31T12:06:25.915Z,30.76
2017-07-31T12:08:55.214Z,30.64
2017-07-31T12:11:26.299Z,29.85
2017-07-31T12:13:56.942Z,30.11
2017-07-31T12:16:27.232Z,30.33
2017-07-31T12:18:57.021Z,30.67
2017-07-31T12:21:26.198Z,30.72
2017-07-31T12:23:55.475Z,31.61
2017-07-31T12:26:26.044Z,31.87
2017-07-31T12:28:56.363Z,31.39
2017-07-31T12:31:25.925Z,30.65
2017-07-31T12:33:55.482Z,31.00
2017-07-31T12:36:24.686Z,30.43
2017-07-31T12:38:53.880Z,30.13
2017-07-31T12:41:24.919Z,29.86
2017-07-31T12:43:54.082Z,30.08
2017-07-31T12:46:24.952Z,30.18
2017-07-31T12:48:54.378Z,29.86
2017-07-31T12:51:25.604Z,29.18
2017-07-31T12:53:55.091Z,29.09
2017-07-31T12:56:24.289Z,29.70
2017-07-31T12:58:53.459Z,30.44
2017-07-31T13:01:22.910Z,30.03
2017-07-31T13:03:52.138Z,29.97
2017-07-31T13:06:21.347Z,30.01
2017-07-31T13:08:50.783Z,29.93
2017-07-31T13:11:19.991Z,29.58
2017-07-31T13:13:49.195Z,29.23
2017-07-31T13:16:18.871Z,29.23
2017-07-31T13:18:48.027Z,29.90
2017-07-31T13:21:17.196Z,29.49
2017-07-31T13:23:46.635Z,30.08
2017-07-31T13:26:15.801Z,29.64
2017-07-31T13:28:44.997Z,29.39
2017-07-31T13:31:14.558Z,29.33
2017-07-31T13:33:43.750Z,28.88
2017-07-31T13:36:12.942Z,28.92
2017-07-31T13:38:42.411Z,28.88
2017-07-31T13:41:11.570Z,29.70
2017-07-31T13:43:40.774Z,30.64
2017-07-31T13:46:10.306Z,30.68
2017-07-31T13:48:39.603Z,30.42
2017-07-31T13:51:08.809Z,30.12
2017-07-31T13:53:38.360Z,30.06
2017-07-31T13:56:07.788Z,30.00
2017-07-31T13:58:37.111Z,30.13
2017-07-31T14:01:06.614Z,30.15
2017-07-31T14:03:35.811Z,30.39
2017-07-31T14:06:05.018Z,30.35
2017-07-31T14:08:34.520Z,30.02
2017-07-31T14:11:03.738Z,29.94
2017-07-31T14:13:38.667Z,30.12
2017-07-31T14:16:08.247Z,30.18
2017-07-31T14:18:37.475Z,30.08
2017-07-31T14:21:06.636Z,29.66
2017-07-31T14:23:36.088Z,29.79
2017-07-31T14:26:05.274Z,30.08
2017-07-31T14:28:34.429Z,30.06
2017-07-31T14:31:03.892Z,29.88
2017-07-31T14:33:33.192Z,29.54
2017-07-31T14:36:02.583Z,29.63
2017-07-31T14:38:32.030Z,29.88
2017-07-31T14:41:01.348Z,29.75
2017-07-31T14:43:30.519Z,29.60
2017-07-31T14:45:59.963Z,29.51
2017-07-31T14:48:29.129Z,29.49
2017-07-31T14:50:58.282Z,29.51
2017-07-31T14:53:27.801Z,29.65
2017-07-31T14:55:56.975Z,29.88
2017-07-31T14:58:26.215Z,29.62
2017-07-31T15:00:55.679Z,29.79
2017-07-31T15:03:25.748Z,29.70
2017-07-31T15:05:54.936Z,29.67
2017-07-31T15:08:25.786Z,29.77
2017-07-31T15:10:54.999Z,29.57
2017-07-31T15:13:25.798Z,29.25
2017-07-31T15:15:55.274Z,28.87
2017-07-31T15:18:25.590Z,28.72
2017-07-31T15:20:54.768Z,28.55
2017-07-31T15:23:26.783Z,28.32
2017-07-31T15:25:55.946Z,28.42
2017-07-31T15:28:25.991Z,28.29
2017-07-31T15:30:56.296Z,28.78
2017-07-31T15:33:26.031Z,29.43
2017-07-31T15:35:55.409Z,29.31
2017-07-31T15:38:26.030Z,29.40
2017-07-31T15:40:55.226Z,28.99
2017-07-31T15:43:24.411Z,29.00
2017-07-31T15:45:53.879Z,29.07
2017-07-31T15:48:24.138Z,29.21
2017-07-31T15:50:53.310Z,29.00
2017-07-31T15:53:23.966Z,29.00
2017-07-31T15:55:53.154Z,29.17
2017-07-31T15:58:22.998Z,29.00
2017-07-31T16:00:52.491Z,28.91
2017-07-31T16:03:21.679Z,28.85
2017-07-31T16:05:50.839Z,28.93
2017-07-31T16:08:20.932Z,29.01
2017-07-31T16:10:50.132Z,29.09
2017-07-31T16:13:19.412Z,29.00
2017-07-31T16:15:48.844Z,28.92
2017-07-31T16:18:18.059Z,28.77
2017-07-31T16:20:47.192Z,28.98
2017-07-31T16:23:16.694Z,28.83
2017-07-31T16:25:47.137Z,28.73
2017-07-31T16:28:16.296Z,28.64
2017-07-31T16:30:47.329Z,28.57
2017-07-31T16:33:16.522Z,28.52
2017-07-31T16:35:45.718Z,28.48
2017-07-31T16:38:23.999Z,28.23
2017-07-31T16:40:56.343Z,28.17
2017-07-31T16:43:35.606Z,28.10
2017-07-31T16:46:13.848Z,27.98
2017-07-31T16:48:43.763Z,27.96
2017-07-31T16:51:12.955Z,27.90
2017-07-31T16:53:42.143Z,27.84
2017-07-31T16:56:11.711Z,27.75
2017-07-31T16:58:40.902Z,27.76
2017-07-31T17:01:10.090Z,27.69
2017-07-31T17:03:39.563Z,27.64
2017-07-31T17:06:08.804Z,27.67
2017-07-31T17:08:37.947Z,27.59
2017-07-31T17:11:07.430Z,27.60
2017-07-31T17:13:36.574Z,27.76
2017-07-31T17:16:05.716Z,27.82
2017-07-31T17:18:35.176Z,27.88
2017-07-31T17:21:04.645Z,27.89
2017-07-31T17:23:33.836Z,27.86
2017-07-31T17:26:03.294Z,27.59
2017-07-31T17:28:32.505Z,27.51
2017-07-31T17:31:01.678Z,27.54
2017-07-31T17:33:31.184Z,27.54
2017-07-31T17:36:00.373Z,27.66
2017-07-31T17:38:29.579Z,27.49
2017-07-31T17:40:59.888Z,27.36
2017-07-31T17:43:29.079Z,27.33
2017-07-31T17:45:58.251Z,27.39
2017-07-31T17:48:27.725Z,27.38
2017-07-31T17:50:56.891Z,27.26
2017-07-31T17:53:26.098Z,27.28
2017-07-31T17:55:55.564Z,27.26
2017-07-31T17:58:26.098Z,27.18
2017-07-31T18:00:55.603Z,27.09
2017-07-31T18:03:26.128Z,27.20
2017-07-31T18:05:55.322Z,27.22
2017-07-31T18:08:25.387Z,27.26
2017-07-31T18:10:54.987Z,27.09
2017-07-31T18:13:26.663Z,27.11
2017-07-31T18:15:55.889Z,27.01
2017-07-31T18:18:25.170Z,26.86
2017-07-31T18:20:54.344Z,26.72
2017-07-31T18:23:23.836Z,26.60
2017-07-31T18:25:53.215Z,26.46
2017-07-31T18:28:23.331Z,26.37
2017-07-31T18:30:52.775Z,26.25
2017-07-31T18:33:23.347Z,26.14
2017-07-31T18:35:52.570Z,26.03
2017-07-31T18:38:23.294Z,25.90
2017-07-31T18:40:52.516Z,25.87
2017-07-31T18:43:23.438Z,25.80
2017-07-31T18:45:53.075Z,25.64
2017-07-31T18:48:22.250Z,25.60
2017-07-31T18:50:51.456Z,25.51
2017-07-31T18:53:21.007Z,25.45
2017-07-31T18:55:50.212Z,25.39
2017-07-31T18:58:19.398Z,25.35
2017-07-31T19:00:48.934Z,25.31
2017-07-31T19:03:18.107Z,25.23
2017-07-31T19:05:47.351Z,25.06
2017-07-31T19:08:16.762Z,25.11
2017-07-31T19:10:45.994Z,25.09
2017-07-31T19:13:15.198Z,25.00
2017-07-31T19:15:44.640Z,25.03
2017-07-31T19:18:13.855Z,24.96
2017-07-31T19:20:44.915Z,24.87
2017-07-31T19:23:14.370Z,24.79
2017-07-31T19:25:44.017Z,24.83
2017-07-31T19:28:14.021Z,24.73
2017-07-31T19:30:43.538Z,24.62
2017-07-31T19:33:12.758Z,24.65
2017-07-31T19:35:41.935Z,24.55
2017-07-31T19:38:11.367Z,24.36
2017-07-31T19:40:40.956Z,24.42
2017-07-31T19:43:10.112Z,24.38
2017-07-31T19:45:39.580Z,24.35
2017-07-31T19:48:08.787Z,24.32
2017-07-31T19:50:37.955Z,24.28
2017-07-31T19:53:07.433Z,24.17
2017-07-31T19:55:36.614Z,24.11
2017-07-31T19:58:05.903Z,24.13
2017-07-31T20:00:35.495Z,24.04
2017-07-31T20:03:04.777Z,24.00
2017-07-31T20:05:34.016Z,24.01
2017-07-31T20:08:03.717Z,23.95
2017-07-31T20:10:32.931Z,23.88
2017-07-31T20:13:04.621Z,23.82
2017-07-31T20:15:34.059Z,23.67
2017-07-31T20:18:03.432Z,23.67
2017-07-31T20:20:32.602Z,23.60
2017-07-31T20:23:02.349Z,23.55
2017-07-31T20:25:31.527Z,23.56
2017-07-31T20:28:00.737Z,23.53
2017-07-31T20:30:30.262Z,23.51
2017-07-31T20:32:59.431Z,23.47
2017-07-31T20:35:28.616Z,23.47
2017-07-31T20:37:58.112Z,23.43
2017-07-31T20:40:27.290Z,23.41
2017-07-31T20:42:56.446Z,23.34
2017-07-31T20:45:26.400Z,23.25
2017-07-31T20:47:55.567Z,23.22
2017-07-31T20:50:24.714Z,23.24
2017-07-31T20:52:54.179Z,23.16
2017-07-31T20:55:23.373Z,23.14
2017-07-31T20:57:52.551Z,23.13
2017-07-31T21:00:23.251Z,23.09
2017-07-31T21:02:52.451Z,22.99
2017-07-31T21:05:21.799Z,22.92
2017-07-31T21:07:51.228Z,22.90
2017-07-31T21:10:21.051Z,22.86
2017-07-31T21:12:50.255Z,22.65
2017-07-31T21:15:20.200Z,22.62
2017-07-31T21:17:49.582Z,22.71
2017-07-31T21:20:19.454Z,22.68
2017-07-31T21:22:49.224Z,22.69
2017-07-31T21:25:18.832Z,22.63
2017-07-31T21:27:47.995Z,22.71
2017-07-31T21:30:17.544Z,22.73
2017-07-31T21:32:46.736Z,22.66
2017-07-31T21:35:17.424Z,22.57
2017-07-31T21:37:46.895Z,22.54
2017-07-31T21:40:16.132Z,22.55
2017-07-31T21:42:45.286Z,22.55
2017-07-31T21:45:14.733Z,22.54
2017-07-31T21:47:43.954Z,22.53
2017-07-31T21:50:13.131Z,22.46
2017-07-31T21:52:42.599Z,22.42
2017-07-31T21:55:11.775Z,22.32
2017-07-31T21:57:40.960Z,22.36
2017-07-31T22:00:10.474Z,22.38
2017-07-31T22:02:39.651Z,22.42
2017-07-31T22:05:09.495Z,22.34
2017-07-31T22:07:38.995Z,22.30
2017-07-31T22:10:09.018Z,22.23
2017-07-31T22:12:38.243Z,22.06
2017-07-31T22:15:07.683Z,21.74
2017-07-31T22:17:40.909Z,21.99
2017-07-31T22:20:14.470Z,22.07
2017-07-31T22:22:43.648Z,22.06
2017-07-31T22:25:12.806Z,21.53
2017-07-31T22:27:42.418Z,21.09
2017-07-31T22:30:11.666Z,21.18
2017-07-31T22:32:40.855Z,21.06
2017-07-31T22:35:10.380Z,21.20
2017-07-31T22:37:39.573Z,21.12
2017-07-31T22:40:08.974Z,21.16
2017-07-31T22:42:38.483Z,21.30
2017-07-31T22:45:07.635Z,21.44
2017-07-31T22:47:36.823Z,21.53
2017-07-31T22:50:06.418Z,21.41
2017-07-31T22:52:35.594Z,21.50
2017-07-31T22:55:04.765Z,21.44
2017-07-31T22:57:35.474Z,21.46
2017-07-31T23:00:05.142Z,21.46
2017-07-31T23:02:34.444Z,21.48
2017-07-31T23:05:04.248Z,21.50
2017-07-31T23:07:33.749Z,21.32
2017-07-31T23:10:03.111Z,21.21
2017-07-31T23:12:32.687Z,21.32
2017-07-31T23:15:02.073Z,21.30
2017-07-31T23:17:31.615Z,21.32
2017-07-31T23:20:01.152Z,21.27
2017-07-31T23:22:30.884Z,21.29
2017-07-31T23:25:00.394Z,21.18
2017-07-31T23:27:29.989Z,20.96
2017-07-31T23:29:59.412Z,21.00
2017-07-31T23:32:28.994Z,21.05
2017-07-31T23:34:58.483Z,21.00
2017-07-31T23:37:27.994Z,21.01
2017-07-31T23:39:57.129Z,21.01
2017-07-31T23:42:26.707Z,20.94
2017-07-31T23:44:55.894Z,20.88
2017-07-31T23:47:25.934Z,20.85
2017-07-31T23:49:55.647Z,20.53
2017-07-31T23:52:25.811Z,20.79
2017-07-31T23:54:55.391Z,20.85
2017-07-31T23:57:27.627Z,20.91
2017-07-31T23:59:56.782Z,20.92
